WZZ7837 UDYZ-LCLK
Flight info
| Callsign | WZZ7837 |
|---|---|
| Flight time | 1h 53m |
| Altitude | 36000 |
| Route | INDUR UN161 YAVUZ UB374 ERZ UA4 SIV UT284 EVKIT UB545 VESAR DCT KRASI DCT RUDER |
| Aircraft | A21N/M-SDE3FGHIRWY/LB1 |
Departure
| Time | 2026-04-28 16:55 |
|---|---|
| Airport | Zvartnots International Airport (UDYZ) |
Arrival
| Time | 2026-04-28 18:48 |
|---|---|
| Airport | Larnaca International Airport (LCLK) |
| Time | Latitude | Longitude | Altitude | Speed | Heading |
|---|---|---|---|---|---|
| 2026-04-28 16:24 | 40.15124 | 44.39690 | 2851 ft | 0 kts | 89° |
| 2026-04-28 16:41 | 40.15124 | 44.39685 | 2851 ft | 2 kts | 89° |
| 2026-04-28 16:41 | 40.15123 | 44.39665 | 2851 ft | 2 kts | 89° |
| 2026-04-28 16:42 | 40.15123 | 44.39646 | 2851 ft | 2 kts | 89° |
| 2026-04-28 16:42 | 40.15123 | 44.39625 | 2851 ft | 2 kts | 89° |
| 2026-04-28 16:42 | 40.15123 | 44.39607 | 2851 ft | 2 kts | 88° |
| 2026-04-28 16:42 | 40.15126 | 44.39587 | 2851 ft | 2 kts | 130° |
| 2026-04-28 16:43 | 40.15133 | 44.39579 | 2851 ft | 1 kts | 151° |
| 2026-04-28 16:43 | 40.15139 | 44.39576 | 2851 ft | 0 kts | 153° |
| 2026-04-28 16:45 | 40.15134 | 44.39579 | 2851 ft | 0 kts | 152° |
| 2026-04-28 16:45 | 40.15128 | 44.39584 | 2851 ft | 1 kts | 149° |
| 2026-04-28 16:46 | 40.15116 | 44.39594 | 2851 ft | 2 kts | 142° |
| 2026-04-28 16:46 | 40.15105 | 44.39606 | 2851 ft | 1 kts | 140° |
| 2026-04-28 16:46 | 40.15094 | 44.39619 | 2851 ft | 3 kts | 133° |
| 2026-04-28 16:46 | 40.15077 | 44.39648 | 2851 ft | 4 kts | 123° |
| 2026-04-28 16:47 | 40.15062 | 44.39686 | 2851 ft | 6 kts | 111° |
| 2026-04-28 16:47 | 40.15039 | 44.39749 | 2851 ft | 8 kts | 131° |
| 2026-04-28 16:47 | 40.15012 | 44.39775 | 2851 ft | 0 kts | 146° |
| 2026-04-28 16:48 | 40.15007 | 44.39779 | 2851 ft | 2 kts | 144° |
| 2026-04-28 16:48 | 40.14988 | 44.39804 | 2851 ft | 4 kts | 118° |
| 2026-04-28 16:49 | 40.14980 | 44.39849 | 2851 ft | 6 kts | 94° |
| 2026-04-28 16:49 | 40.14979 | 44.39917 | 2851 ft | 7 kts | 89° |
| 2026-04-28 16:49 | 40.14977 | 44.39989 | 2851 ft | 9 kts | 112° |
| 2026-04-28 16:49 | 40.14904 | 44.40028 | 2851 ft | 12 kts | 179° |
| 2026-04-28 16:50 | 40.14820 | 44.40029 | 2851 ft | 11 kts | 178° |
| 2026-04-28 16:50 | 40.14746 | 44.40006 | 2851 ft | 10 kts | 227° |
| 2026-04-28 16:50 | 40.14730 | 44.39917 | 2850 ft | 10 kts | 266° |
| 2026-04-28 16:50 | 40.14728 | 44.39793 | 2850 ft | 18 kts | 269° |
| 2026-04-28 16:51 | 40.14727 | 44.39592 | 2850 ft | 25 kts | 269° |
| 2026-04-28 16:51 | 40.14726 | 44.39331 | 2850 ft | 32 kts | 269° |
| 2026-04-28 16:51 | 40.14726 | 44.39001 | 2850 ft | 39 kts | 270° |
| 2026-04-28 16:51 | 40.14724 | 44.38629 | 2850 ft | 41 kts | 269° |
| 2026-04-28 16:52 | 40.14721 | 44.38251 | 2850 ft | 39 kts | 269° |
| 2026-04-28 16:52 | 40.14719 | 44.37914 | 2850 ft | 35 kts | 270° |
| 2026-04-28 16:52 | 40.14719 | 44.37622 | 2849 ft | 26 kts | 269° |
| 2026-04-28 16:52 | 40.14720 | 44.37482 | 2849 ft | 10 kts | 278° |
| 2026-04-28 16:53 | 40.14743 | 44.37408 | 2849 ft | 5 kts | 296° |
| 2026-04-28 16:53 | 40.14735 | 44.37371 | 2849 ft | 3 kts | 201° |
| 2026-04-28 16:53 | 40.14718 | 44.37392 | 2849 ft | 3 kts | 94° |
| 2026-04-28 16:53 | 40.14717 | 44.37421 | 2849 ft | 2 kts | 91° |
| 2026-04-28 16:54 | 40.14717 | 44.37618 | 2849 ft | 54 kts | 88° |
| 2026-04-28 16:54 | 40.14727 | 44.38423 | 2850 ft | 119 kts | 88° |
| 2026-04-28 16:54 | 40.14726 | 44.39762 | 2917 ft | 166 kts | 84° |
| 2026-04-28 16:54 | 40.14715 | 44.40751 | 3309 ft | 167 kts | 86° |
| 2026-04-28 16:55 | 40.14700 | 44.42776 | 4152 ft | 171 kts | 85° |
| 2026-04-28 16:55 | 40.14734 | 44.44320 | 4762 ft | 170 kts | 89° |
| 2026-04-28 16:55 | 40.14306 | 44.45793 | 5023 ft | 189 kts | 125° |
| 2026-04-28 16:55 | 40.13167 | 44.46787 | 5267 ft | 210 kts | 158° |
| 2026-04-28 16:56 | 40.11661 | 44.46801 | 5473 ft | 230 kts | 195° |
| 2026-04-28 16:56 | 40.10335 | 44.45542 | 5698 ft | 247 kts | 236° |
| 2026-04-28 16:56 | 40.09857 | 44.43373 | 6002 ft | 258 kts | 270° |
| 2026-04-28 16:56 | 40.09945 | 44.40950 | 6324 ft | 274 kts | 275° |
| 2026-04-28 16:57 | 40.10078 | 44.38409 | 6750 ft | 287 kts | 274° |
| 2026-04-28 16:57 | 40.10188 | 44.35795 | 7394 ft | 291 kts | 273° |
| 2026-04-28 16:57 | 40.10278 | 44.33173 | 8111 ft | 292 kts | 272° |
| 2026-04-28 16:57 | 40.10354 | 44.30542 | 8812 ft | 294 kts | 272° |
| 2026-04-28 16:58 | 40.10420 | 44.27897 | 9483 ft | 296 kts | 272° |
| 2026-04-28 16:58 | 40.10483 | 44.25190 | 10135 ft | 299 kts | 272° |
| 2026-04-28 16:58 | 40.10544 | 44.22464 | 10629 ft | 308 kts | 272° |
| 2026-04-28 16:58 | 40.10606 | 44.19562 | 10915 ft | 324 kts | 271° |
| 2026-04-28 16:59 | 40.10668 | 44.16562 | 11196 ft | 340 kts | 271° |
| 2026-04-28 16:59 | 40.10732 | 44.13397 | 11486 ft | 354 kts | 271° |
| 2026-04-28 16:59 | 40.10796 | 44.10156 | 11987 ft | 361 kts | 271° |
| 2026-04-28 16:59 | 40.10860 | 44.06894 | 12607 ft | 363 kts | 271° |
| 2026-04-28 17:00 | 40.10925 | 44.03582 | 13228 ft | 366 kts | 271° |
| 2026-04-28 17:00 | 40.10988 | 44.00268 | 13833 ft | 368 kts | 271° |
| 2026-04-28 17:00 | 40.11050 | 43.96952 | 14433 ft | 370 kts | 271° |
| 2026-04-28 17:00 | 40.11113 | 43.93572 | 15037 ft | 372 kts | 271° |
| 2026-04-28 17:01 | 40.11174 | 43.90203 | 15622 ft | 374 kts | 271° |
| 2026-04-28 17:01 | 40.11234 | 43.86811 | 16180 ft | 376 kts | 271° |
| 2026-04-28 17:01 | 40.11293 | 43.83388 | 16736 ft | 378 kts | 271° |
| 2026-04-28 17:01 | 40.11351 | 43.79990 | 17280 ft | 380 kts | 271° |
| 2026-04-28 17:02 | 40.11409 | 43.76534 | 17804 ft | 382 kts | 271° |
| 2026-04-28 17:02 | 40.11447 | 43.74227 | 18156 ft | 384 kts | 270° |
| 2026-04-28 17:02 | 40.11526 | 43.69571 | 18862 ft | 386 kts | 270° |
| 2026-04-28 17:02 | 40.11527 | 43.66034 | 19364 ft | 388 kts | 267° |
| 2026-04-28 17:03 | 40.11196 | 43.58972 | 20337 ft | 392 kts | 265° |
| 2026-04-28 17:03 | 40.11002 | 43.55425 | 20812 ft | 394 kts | 265° |
| 2026-04-28 17:03 | 40.10807 | 43.51863 | 21274 ft | 396 kts | 265° |
| 2026-04-28 17:04 | 40.10413 | 43.44645 | 22193 ft | 400 kts | 264° |
| 2026-04-28 17:04 | 40.10215 | 43.41040 | 22624 ft | 401 kts | 264° |
| 2026-04-28 17:05 | 40.09816 | 43.33762 | 23435 ft | 406 kts | 264° |
| 2026-04-28 17:05 | 40.09614 | 43.30082 | 23826 ft | 408 kts | 264° |
| 2026-04-28 17:05 | 40.09410 | 43.26403 | 24215 ft | 410 kts | 264° |
| 2026-04-28 17:06 | 40.08992 | 43.18972 | 24953 ft | 413 kts | 264° |
| 2026-04-28 17:06 | 40.08777 | 43.15200 | 25321 ft | 415 kts | 264° |
| 2026-04-28 17:06 | 40.08346 | 43.07726 | 26018 ft | 418 kts | 264° |
| 2026-04-28 17:07 | 40.08122 | 43.03894 | 26351 ft | 420 kts | 264° |
| 2026-04-28 17:07 | 40.07901 | 43.00136 | 26688 ft | 421 kts | 264° |
| 2026-04-28 17:07 | 40.07676 | 42.96297 | 27044 ft | 422 kts | 264° |
| 2026-04-28 17:07 | 40.07449 | 42.92433 | 27378 ft | 423 kts | 264° |
| 2026-04-28 17:08 | 40.07227 | 42.88611 | 27698 ft | 424 kts | 264° |
| 2026-04-28 17:08 | 40.07001 | 42.84743 | 27991 ft | 426 kts | 264° |
| 2026-04-28 17:08 | 40.06773 | 42.80867 | 28284 ft | 427 kts | 263° |
| 2026-04-28 17:08 | 40.06543 | 42.76998 | 28579 ft | 428 kts | 263° |
| 2026-04-28 17:09 | 40.06311 | 42.73172 | 28854 ft | 430 kts | 263° |
| 2026-04-28 17:09 | 40.06073 | 42.69250 | 29120 ft | 431 kts | 263° |
| 2026-04-28 17:09 | 40.05836 | 42.65347 | 29446 ft | 431 kts | 263° |
| 2026-04-28 17:09 | 40.05600 | 42.61503 | 29846 ft | 429 kts | 263° |
| 2026-04-28 17:10 | 40.05361 | 42.57614 | 30258 ft | 427 kts | 263° |
| 2026-04-28 17:10 | 40.05128 | 42.53865 | 30627 ft | 425 kts | 263° |
| 2026-04-28 17:10 | 40.04884 | 42.49970 | 30972 ft | 423 kts | 263° |
| 2026-04-28 17:10 | 40.04644 | 42.46153 | 31281 ft | 422 kts | 263° |
| 2026-04-28 17:11 | 40.04404 | 42.42354 | 31593 ft | 421 kts | 263° |
| 2026-04-28 17:11 | 40.04154 | 42.38564 | 31903 ft | 420 kts | 263° |
| 2026-04-28 17:11 | 40.03898 | 42.34784 | 32182 ft | 419 kts | 262° |
| 2026-04-28 17:11 | 40.03641 | 42.31030 | 32462 ft | 419 kts | 262° |
| 2026-04-28 17:12 | 40.03382 | 42.27232 | 32759 ft | 418 kts | 262° |
| 2026-04-28 17:12 | 40.03129 | 42.23549 | 33024 ft | 417 kts | 262° |
| 2026-04-28 17:12 | 40.02866 | 42.19744 | 33295 ft | 416 kts | 262° |
| 2026-04-28 17:12 | 40.02607 | 42.16021 | 33549 ft | 415 kts | 262° |
| 2026-04-28 17:13 | 40.02344 | 42.12277 | 33788 ft | 415 kts | 262° |
| 2026-04-28 17:13 | 40.02081 | 42.08546 | 34032 ft | 414 kts | 262° |
| 2026-04-28 17:13 | 40.01818 | 42.04821 | 34280 ft | 414 kts | 262° |
| 2026-04-28 17:13 | 40.01553 | 42.01111 | 34484 ft | 413 kts | 262° |
| 2026-04-28 17:14 | 40.01286 | 41.97372 | 34641 ft | 414 kts | 262° |
| 2026-04-28 17:14 | 40.01019 | 41.93673 | 34771 ft | 415 kts | 262° |
| 2026-04-28 17:14 | 40.00745 | 41.89871 | 34902 ft | 416 kts | 262° |
| 2026-04-28 17:14 | 40.00470 | 41.86106 | 35041 ft | 417 kts | 262° |
| 2026-04-28 17:15 | 40.00196 | 41.82345 | 35184 ft | 417 kts | 262° |
| 2026-04-28 17:15 | 39.99918 | 41.78573 | 35313 ft | 418 kts | 262° |
| 2026-04-28 17:15 | 39.99643 | 41.74821 | 35440 ft | 419 kts | 262° |
| 2026-04-28 17:15 | 39.99374 | 41.71062 | 35561 ft | 420 kts | 262° |
| 2026-04-28 17:16 | 39.99107 | 41.67273 | 35667 ft | 421 kts | 262° |
| 2026-04-28 17:16 | 39.98837 | 41.63465 | 35769 ft | 422 kts | 262° |
| 2026-04-28 17:16 | 39.98567 | 41.59668 | 35873 ft | 422 kts | 262° |
| 2026-04-28 17:16 | 39.98295 | 41.55889 | 35980 ft | 423 kts | 262° |
| 2026-04-28 17:17 | 39.97741 | 41.48275 | 36073 ft | 424 kts | 262° |
| 2026-04-28 17:17 | 39.97177 | 41.40620 | 36082 ft | 424 kts | 262° |
| 2026-04-28 17:18 | 39.96607 | 41.32969 | 36080 ft | 425 kts | 262° |
| 2026-04-28 17:18 | 39.96037 | 41.25323 | 36074 ft | 425 kts | 262° |
| 2026-04-28 17:19 | 39.95704 | 41.17611 | 36068 ft | 427 kts | 266° |
| 2026-04-28 17:19 | 39.95704 | 41.09924 | 36067 ft | 428 kts | 267° |
| 2026-04-28 17:20 | 39.95708 | 41.03456 | 36067 ft | 428 kts | 267° |
| 2026-04-28 17:20 | 39.95704 | 40.94405 | 36075 ft | 428 kts | 267° |
| 2026-04-28 17:21 | 39.95692 | 40.86700 | 36075 ft | 427 kts | 267° |
| 2026-04-28 17:22 | 39.95661 | 40.75114 | 36081 ft | 427 kts | 267° |
| 2026-04-28 17:22 | 39.95636 | 40.67384 | 36086 ft | 428 kts | 267° |
| 2026-04-28 17:23 | 39.95602 | 40.55785 | 36092 ft | 428 kts | 267° |
| 2026-04-28 17:23 | 39.95570 | 40.48055 | 36098 ft | 427 kts | 268° |
| 2026-04-28 17:24 | 39.95532 | 40.40365 | 36088 ft | 428 kts | 268° |
| 2026-04-28 17:24 | 39.95488 | 40.32579 | 36097 ft | 428 kts | 267° |
| 2026-04-28 17:25 | 39.95412 | 40.20981 | 36108 ft | 428 kts | 267° |
| 2026-04-28 17:26 | 39.95354 | 40.13276 | 36099 ft | 427 kts | 267° |
| 2026-04-28 17:26 | 39.95289 | 40.05548 | 36097 ft | 427 kts | 267° |
| 2026-04-28 17:27 | 39.95218 | 39.97836 | 36104 ft | 426 kts | 267° |
| 2026-04-28 17:27 | 39.95145 | 39.90156 | 36102 ft | 427 kts | 267° |
| 2026-04-28 17:28 | 39.95069 | 39.82426 | 36101 ft | 427 kts | 267° |
| 2026-04-28 17:28 | 39.94935 | 39.70799 | 36101 ft | 428 kts | 267° |
| 2026-04-28 17:29 | 39.94838 | 39.63081 | 36096 ft | 428 kts | 267° |
| 2026-04-28 17:30 | 39.94694 | 39.51467 | 36101 ft | 428 kts | 267° |
| 2026-04-28 17:30 | 39.94541 | 39.39878 | 36093 ft | 427 kts | 267° |
| 2026-04-28 17:31 | 39.94370 | 39.28317 | 36086 ft | 427 kts | 267° |
| 2026-04-28 17:32 | 39.94186 | 39.16751 | 36089 ft | 428 kts | 267° |
| 2026-04-28 17:32 | 39.94057 | 39.09007 | 36080 ft | 428 kts | 267° |
| 2026-04-28 17:33 | 39.93940 | 39.01236 | 36096 ft | 428 kts | 267° |
| 2026-04-28 17:33 | 39.93838 | 38.94818 | 36097 ft | 427 kts | 267° |
| 2026-04-28 17:34 | 39.93554 | 38.85857 | 36102 ft | 426 kts | 264° |
| 2026-04-28 17:34 | 39.93051 | 38.78130 | 36109 ft | 426 kts | 264° |
| 2026-04-28 17:35 | 39.92541 | 38.70505 | 36105 ft | 426 kts | 264° |
| 2026-04-28 17:35 | 39.92022 | 38.62826 | 36107 ft | 426 kts | 264° |
| 2026-04-28 17:36 | 39.91500 | 38.55191 | 36104 ft | 426 kts | 264° |
| 2026-04-28 17:36 | 39.90968 | 38.47504 | 36102 ft | 426 kts | 264° |
| 2026-04-28 17:37 | 39.90432 | 38.39811 | 36112 ft | 425 kts | 264° |
| 2026-04-28 17:37 | 39.89896 | 38.32214 | 36109 ft | 425 kts | 263° |
| 2026-04-28 17:38 | 39.89329 | 38.24584 | 36106 ft | 424 kts | 263° |
| 2026-04-28 17:38 | 39.88767 | 38.16911 | 36111 ft | 424 kts | 263° |
| 2026-04-28 17:39 | 39.88215 | 38.09286 | 36102 ft | 424 kts | 263° |
| 2026-04-28 17:40 | 39.87382 | 37.97886 | 36100 ft | 424 kts | 263° |
| 2026-04-28 17:40 | 39.86822 | 37.90257 | 36106 ft | 424 kts | 263° |
| 2026-04-28 17:41 | 39.86258 | 37.82602 | 36106 ft | 424 kts | 263° |
| 2026-04-28 17:41 | 39.85692 | 37.74987 | 36111 ft | 424 kts | 263° |
| 2026-04-28 17:42 | 39.85121 | 37.67357 | 36113 ft | 424 kts | 263° |
| 2026-04-28 17:42 | 39.84547 | 37.59748 | 36114 ft | 424 kts | 263° |
| 2026-04-28 17:43 | 39.83968 | 37.52127 | 36105 ft | 424 kts | 264° |
| 2026-04-28 17:43 | 39.83382 | 37.44497 | 36099 ft | 424 kts | 263° |
| 2026-04-28 17:44 | 39.82787 | 37.36910 | 36105 ft | 424 kts | 263° |
| 2026-04-28 17:44 | 39.82187 | 37.29364 | 36111 ft | 424 kts | 263° |
| 2026-04-28 17:45 | 39.81575 | 37.21677 | 36108 ft | 424 kts | 263° |
| 2026-04-28 17:45 | 39.80966 | 37.14096 | 36109 ft | 424 kts | 263° |
| 2026-04-28 17:46 | 39.80349 | 37.06496 | 36106 ft | 424 kts | 263° |
| 2026-04-28 17:46 | 39.79539 | 36.98875 | 36089 ft | 423 kts | 256° |
| 2026-04-28 17:47 | 39.77464 | 36.91763 | 36080 ft | 424 kts | 242° |
| 2026-04-28 17:47 | 39.74059 | 36.85519 | 36084 ft | 426 kts | 229° |
| 2026-04-28 17:48 | 39.69578 | 36.80521 | 36089 ft | 427 kts | 218° |
| 2026-04-28 17:48 | 39.64780 | 36.75993 | 36084 ft | 428 kts | 218° |
| 2026-04-28 17:49 | 39.59952 | 36.71464 | 36087 ft | 428 kts | 218° |
| 2026-04-28 17:49 | 39.55134 | 36.66943 | 36088 ft | 428 kts | 218° |
| 2026-04-28 17:50 | 39.50331 | 36.62439 | 36093 ft | 428 kts | 218° |
| 2026-04-28 17:50 | 39.45514 | 36.57927 | 36090 ft | 429 kts | 218° |
| 2026-04-28 17:51 | 39.40678 | 36.53406 | 36086 ft | 429 kts | 218° |
| 2026-04-28 17:51 | 39.35858 | 36.48906 | 36089 ft | 429 kts | 218° |
| 2026-04-28 17:52 | 39.31012 | 36.44391 | 36086 ft | 429 kts | 218° |
| 2026-04-28 17:52 | 39.23742 | 36.37633 | 36087 ft | 429 kts | 218° |
| 2026-04-28 17:53 | 39.18921 | 36.33156 | 36082 ft | 429 kts | 218° |
| 2026-04-28 17:53 | 39.14054 | 36.28622 | 36079 ft | 429 kts | 218° |
| 2026-04-28 17:54 | 39.09231 | 36.24148 | 36087 ft | 430 kts | 218° |
| 2026-04-28 17:54 | 39.04350 | 36.19638 | 36085 ft | 430 kts | 217° |
| 2026-04-28 17:55 | 38.99481 | 36.15151 | 36077 ft | 430 kts | 217° |
| 2026-04-28 17:55 | 38.94633 | 36.10691 | 36077 ft | 430 kts | 217° |
| 2026-04-28 17:56 | 38.89746 | 36.06205 | 36084 ft | 430 kts | 217° |
| 2026-04-28 17:56 | 38.84874 | 36.01766 | 36081 ft | 431 kts | 217° |
| 2026-04-28 17:57 | 38.79960 | 35.97288 | 36078 ft | 431 kts | 217° |
| 2026-04-28 17:57 | 38.75087 | 35.92844 | 36078 ft | 431 kts | 217° |
| 2026-04-28 17:58 | 38.70196 | 35.88386 | 36071 ft | 432 kts | 217° |
| 2026-04-28 17:58 | 38.65301 | 35.83931 | 36074 ft | 432 kts | 218° |
| 2026-04-28 17:59 | 38.60428 | 35.79502 | 36080 ft | 431 kts | 218° |
| 2026-04-28 17:59 | 38.55533 | 35.75059 | 36085 ft | 432 kts | 217° |
| 2026-04-28 18:00 | 38.50649 | 35.70637 | 36077 ft | 432 kts | 217° |
| 2026-04-28 18:00 | 38.45717 | 35.66177 | 36084 ft | 432 kts | 218° |
| 2026-04-28 18:01 | 38.40818 | 35.61752 | 36103 ft | 433 kts | 218° |
| 2026-04-28 18:01 | 38.35933 | 35.57349 | 36113 ft | 433 kts | 218° |
| 2026-04-28 18:02 | 38.31003 | 35.52914 | 36108 ft | 433 kts | 218° |
| 2026-04-28 18:02 | 38.26089 | 35.48520 | 36110 ft | 432 kts | 218° |
| 2026-04-28 18:03 | 38.21173 | 35.44132 | 36113 ft | 432 kts | 218° |
| 2026-04-28 18:03 | 38.16254 | 35.39743 | 36120 ft | 432 kts | 218° |
| 2026-04-28 18:04 | 38.11344 | 35.35369 | 36124 ft | 433 kts | 218° |
| 2026-04-28 18:04 | 38.06410 | 35.30959 | 36121 ft | 433 kts | 217° |
| 2026-04-28 18:05 | 38.02315 | 35.27303 | 36120 ft | 433 kts | 217° |
| 2026-04-28 18:05 | 37.96561 | 35.22190 | 36116 ft | 433 kts | 217° |
| 2026-04-28 18:06 | 37.91618 | 35.17812 | 36115 ft | 434 kts | 217° |
| 2026-04-28 18:06 | 37.86652 | 35.13438 | 36123 ft | 434 kts | 217° |
| 2026-04-28 18:07 | 37.81690 | 35.09082 | 36118 ft | 435 kts | 217° |
| 2026-04-28 18:07 | 37.76709 | 35.04707 | 36110 ft | 436 kts | 217° |
| 2026-04-28 18:08 | 37.71733 | 35.00337 | 36105 ft | 437 kts | 217° |
| 2026-04-28 18:08 | 37.66746 | 34.95961 | 36094 ft | 437 kts | 217° |
| 2026-04-28 18:09 | 37.61731 | 34.91567 | 36094 ft | 437 kts | 217° |
| 2026-04-28 18:09 | 37.56756 | 34.87217 | 36089 ft | 437 kts | 217° |
| 2026-04-28 18:10 | 37.51753 | 34.82848 | 36092 ft | 438 kts | 217° |
| 2026-04-28 18:10 | 37.46800 | 34.78529 | 36084 ft | 438 kts | 217° |
| 2026-04-28 18:11 | 37.41719 | 34.74105 | 36081 ft | 438 kts | 217° |
| 2026-04-28 18:11 | 37.36717 | 34.69759 | 36085 ft | 439 kts | 217° |
| 2026-04-28 18:12 | 37.31702 | 34.65409 | 36089 ft | 439 kts | 217° |
| 2026-04-28 18:12 | 37.26705 | 34.61081 | 36087 ft | 439 kts | 217° |
| 2026-04-28 18:13 | 37.21668 | 34.56726 | 36093 ft | 439 kts | 217° |
| 2026-04-28 18:13 | 37.16645 | 34.52389 | 36096 ft | 440 kts | 217° |
| 2026-04-28 18:14 | 37.11585 | 34.48027 | 36086 ft | 440 kts | 217° |
| 2026-04-28 18:14 | 37.06587 | 34.43728 | 36093 ft | 440 kts | 217° |
| 2026-04-28 18:15 | 37.01518 | 34.39373 | 36100 ft | 440 kts | 217° |
| 2026-04-28 18:15 | 36.96469 | 34.35043 | 36105 ft | 440 kts | 217° |
| 2026-04-28 18:16 | 36.91419 | 34.30696 | 36103 ft | 440 kts | 217° |
| 2026-04-28 18:16 | 36.86361 | 34.26369 | 36097 ft | 441 kts | 216° |
| 2026-04-28 18:17 | 36.81282 | 34.22050 | 36094 ft | 441 kts | 216° |
| 2026-04-28 18:17 | 36.76216 | 34.17738 | 36096 ft | 441 kts | 217° |
| 2026-04-28 18:18 | 36.71173 | 34.13446 | 36103 ft | 441 kts | 216° |
| 2026-04-28 18:18 | 36.66935 | 34.09846 | 36098 ft | 441 kts | 216° |
| 2026-04-28 18:19 | 36.61015 | 34.04833 | 36082 ft | 441 kts | 217° |
| 2026-04-28 18:19 | 36.55946 | 34.00548 | 36078 ft | 441 kts | 217° |
| 2026-04-28 18:20 | 36.50881 | 33.96268 | 36058 ft | 441 kts | 217° |
| 2026-04-28 18:20 | 36.45795 | 33.91976 | 36040 ft | 441 kts | 217° |
| 2026-04-28 18:21 | 36.40747 | 33.87725 | 36036 ft | 441 kts | 217° |
| 2026-04-28 18:21 | 36.35678 | 33.83460 | 36007 ft | 440 kts | 217° |
| 2026-04-28 18:22 | 36.30616 | 33.79211 | 35989 ft | 440 kts | 217° |
| 2026-04-28 18:22 | 36.25507 | 33.75042 | 35974 ft | 442 kts | 213° |
| 2026-04-28 18:23 | 36.20154 | 33.71258 | 35950 ft | 443 kts | 212° |
| 2026-04-28 18:23 | 36.17465 | 33.69376 | 35602 ft | 445 kts | 212° |
| 2026-04-28 18:23 | 36.14761 | 33.67482 | 35037 ft | 449 kts | 212° |
| 2026-04-28 18:24 | 36.12053 | 33.65586 | 34385 ft | 453 kts | 212° |
| 2026-04-28 18:24 | 36.10227 | 33.64310 | 33787 ft | 456 kts | 211° |
| 2026-04-28 18:24 | 36.06560 | 33.61751 | 32730 ft | 457 kts | 211° |
| 2026-04-28 18:24 | 36.03789 | 33.59820 | 31969 ft | 457 kts | 211° |
| 2026-04-28 18:25 | 36.01028 | 33.57897 | 31214 ft | 457 kts | 211° |
| 2026-04-28 18:25 | 35.98284 | 33.55986 | 30450 ft | 457 kts | 211° |
| 2026-04-28 18:25 | 35.95488 | 33.54040 | 29660 ft | 457 kts | 211° |
| 2026-04-28 18:26 | 35.89956 | 33.50194 | 28209 ft | 454 kts | 211° |
| 2026-04-28 18:26 | 35.87244 | 33.48320 | 27730 ft | 448 kts | 211° |
| 2026-04-28 18:26 | 35.84551 | 33.46464 | 27235 ft | 442 kts | 211° |
| 2026-04-28 18:26 | 35.81903 | 33.44638 | 26730 ft | 436 kts | 211° |
| 2026-04-28 18:27 | 35.79247 | 33.42804 | 26220 ft | 431 kts | 211° |
| 2026-04-28 18:27 | 35.76665 | 33.41020 | 25728 ft | 426 kts | 211° |
| 2026-04-28 18:27 | 35.74102 | 33.39249 | 25236 ft | 421 kts | 211° |
| 2026-04-28 18:27 | 35.71568 | 33.37498 | 24741 ft | 417 kts | 211° |
| 2026-04-28 18:28 | 35.69070 | 33.35771 | 24251 ft | 412 kts | 211° |
| 2026-04-28 18:28 | 35.66585 | 33.34052 | 23763 ft | 408 kts | 211° |
| 2026-04-28 18:28 | 35.64102 | 33.32325 | 23279 ft | 405 kts | 211° |
| 2026-04-28 18:28 | 35.61681 | 33.30643 | 22809 ft | 401 kts | 211° |
| 2026-04-28 18:29 | 35.59257 | 33.28964 | 22333 ft | 398 kts | 211° |
| 2026-04-28 18:29 | 35.56871 | 33.27318 | 21862 ft | 395 kts | 211° |
| 2026-04-28 18:29 | 35.54485 | 33.25673 | 21393 ft | 392 kts | 211° |
| 2026-04-28 18:29 | 35.52108 | 33.24037 | 20929 ft | 390 kts | 211° |
| 2026-04-28 18:30 | 35.49729 | 33.22403 | 20464 ft | 387 kts | 211° |
| 2026-04-28 18:30 | 35.48167 | 33.21331 | 20161 ft | 386 kts | 211° |
| 2026-04-28 18:30 | 35.45089 | 33.19221 | 19547 ft | 383 kts | 211° |
| 2026-04-28 18:30 | 35.42751 | 33.17619 | 19077 ft | 381 kts | 211° |
| 2026-04-28 18:31 | 35.40447 | 33.16040 | 18617 ft | 380 kts | 211° |
| 2026-04-28 18:31 | 35.38142 | 33.14462 | 18149 ft | 378 kts | 211° |
| 2026-04-28 18:31 | 35.35875 | 33.12912 | 17693 ft | 376 kts | 211° |
| 2026-04-28 18:31 | 35.33573 | 33.11338 | 17232 ft | 374 kts | 210° |
| 2026-04-28 18:32 | 35.31332 | 33.09805 | 16774 ft | 372 kts | 210° |
| 2026-04-28 18:32 | 35.29073 | 33.08264 | 16314 ft | 370 kts | 210° |
| 2026-04-28 18:32 | 35.26822 | 33.06727 | 15858 ft | 368 kts | 210° |
| 2026-04-28 18:32 | 35.24608 | 33.05218 | 15426 ft | 367 kts | 210° |
| 2026-04-28 18:33 | 35.22372 | 33.03695 | 14970 ft | 365 kts | 210° |
| 2026-04-28 18:33 | 35.20158 | 33.02187 | 14519 ft | 364 kts | 210° |
| 2026-04-28 18:33 | 35.17964 | 33.00694 | 14071 ft | 362 kts | 210° |
| 2026-04-28 18:33 | 35.15752 | 32.99191 | 13625 ft | 360 kts | 210° |
| 2026-04-28 18:34 | 35.13579 | 32.97743 | 13169 ft | 360 kts | 206° |
| 2026-04-28 18:34 | 35.11163 | 32.96956 | 12671 ft | 360 kts | 184° |
| 2026-04-28 18:34 | 35.08691 | 32.97378 | 12192 ft | 360 kts | 161° |
| 2026-04-28 18:34 | 35.06556 | 32.98887 | 11716 ft | 359 kts | 139° |
| 2026-04-28 18:35 | 35.05031 | 33.01264 | 11237 ft | 357 kts | 116° |
| 2026-04-28 18:35 | 35.04143 | 33.04085 | 10790 ft | 354 kts | 108° |
| 2026-04-28 18:35 | 35.03383 | 33.06892 | 10449 ft | 348 kts | 108° |
| 2026-04-28 18:35 | 35.02625 | 33.09665 | 10340 ft | 335 kts | 108° |
| 2026-04-28 18:36 | 35.01885 | 33.12299 | 10234 ft | 323 kts | 108° |
| 2026-04-28 18:36 | 35.01163 | 33.14830 | 10140 ft | 311 kts | 108° |
| 2026-04-28 18:36 | 35.00457 | 33.17286 | 9897 ft | 305 kts | 108° |
| 2026-04-28 18:36 | 34.99780 | 33.19635 | 9531 ft | 304 kts | 108° |
| 2026-04-28 18:37 | 34.99079 | 33.22065 | 9168 ft | 304 kts | 108° |
| 2026-04-28 18:37 | 34.98380 | 33.24486 | 8799 ft | 303 kts | 109° |
| 2026-04-28 18:37 | 34.97677 | 33.26916 | 8417 ft | 302 kts | 109° |
| 2026-04-28 18:37 | 34.96982 | 33.29311 | 8055 ft | 301 kts | 109° |
| 2026-04-28 18:38 | 34.96287 | 33.31710 | 7756 ft | 298 kts | 109° |
| 2026-04-28 18:38 | 34.95604 | 33.34064 | 7415 ft | 297 kts | 109° |
| 2026-04-28 18:38 | 34.94915 | 33.36433 | 7023 ft | 297 kts | 109° |
| 2026-04-28 18:38 | 34.94226 | 33.38797 | 6729 ft | 294 kts | 109° |
| 2026-04-28 18:39 | 34.93549 | 33.41121 | 6376 ft | 293 kts | 109° |
| 2026-04-28 18:39 | 34.92870 | 33.43450 | 5986 ft | 294 kts | 109° |
| 2026-04-28 18:39 | 34.92185 | 33.45798 | 5718 ft | 289 kts | 109° |
| 2026-04-28 18:39 | 34.91516 | 33.48094 | 5373 ft | 288 kts | 109° |
| 2026-04-28 18:40 | 34.90857 | 33.50353 | 5031 ft | 284 kts | 109° |
| 2026-04-28 18:40 | 34.90201 | 33.52598 | 4660 ft | 278 kts | 109° |
| 2026-04-28 18:40 | 34.89577 | 33.54718 | 4333 ft | 273 kts | 109° |
| 2026-04-28 18:40 | 34.88933 | 33.56873 | 4077 ft | 264 kts | 109° |
| 2026-04-28 18:41 | 34.88325 | 33.58917 | 4036 ft | 250 kts | 109° |
| 2026-04-28 18:41 | 34.87770 | 33.60837 | 4027 ft | 236 kts | 104° |
| 2026-04-28 18:41 | 34.87737 | 33.62769 | 3990 ft | 221 kts | 68° |
| 2026-04-28 18:41 | 34.88562 | 33.64289 | 4029 ft | 215 kts | 43° |
| 2026-04-28 18:42 | 34.89666 | 33.65556 | 3798 ft | 215 kts | 41° |
| 2026-04-28 18:42 | 34.90745 | 33.66781 | 3621 ft | 207 kts | 42° |
| 2026-04-28 18:42 | 34.91785 | 33.67987 | 3369 ft | 202 kts | 43° |
| 2026-04-28 18:42 | 34.92781 | 33.69160 | 3095 ft | 198 kts | 43° |
| 2026-04-28 18:43 | 34.93755 | 33.70317 | 2822 ft | 195 kts | 43° |
| 2026-04-28 18:43 | 34.94712 | 33.71463 | 2582 ft | 188 kts | 43° |
| 2026-04-28 18:43 | 34.95625 | 33.72558 | 2315 ft | 183 kts | 43° |
| 2026-04-28 18:43 | 34.96528 | 33.73640 | 2024 ft | 179 kts | 43° |
| 2026-04-28 18:44 | 34.97416 | 33.74667 | 1740 ft | 175 kts | 37° |
| 2026-04-28 18:44 | 34.99231 | 33.74131 | 1498 ft | 145 kts | 284° |
| 2026-04-28 18:44 | 34.99100 | 33.72931 | 1519 ft | 145 kts | 241° |
| 2026-04-28 18:45 | 34.98327 | 33.72171 | 1514 ft | 147 kts | 196° |
| 2026-04-28 18:45 | 34.97297 | 33.72110 | 1547 ft | 150 kts | 180° |
| 2026-04-28 18:45 | 34.96256 | 33.72142 | 1537 ft | 150 kts | 180° |
| 2026-04-28 18:45 | 34.95238 | 33.71919 | 1516 ft | 148 kts | 210° |
| 2026-04-28 18:46 | 34.94434 | 33.71151 | 1552 ft | 148 kts | 226° |
| 2026-04-28 18:46 | 34.93721 | 33.70228 | 1421 ft | 147 kts | 229° |
| 2026-04-28 18:46 | 34.93032 | 33.69325 | 1242 ft | 146 kts | 227° |
| 2026-04-28 18:46 | 34.92321 | 33.68436 | 1065 ft | 145 kts | 226° |
| 2026-04-28 18:47 | 34.91613 | 33.67571 | 892 ft | 144 kts | 226° |
| 2026-04-28 18:47 | 34.90908 | 33.66713 | 720 ft | 143 kts | 226° |
| 2026-04-28 18:47 | 34.90208 | 33.65858 | 549 ft | 142 kts | 226° |
| 2026-04-28 18:47 | 34.89508 | 33.65002 | 378 ft | 141 kts | 225° |
| 2026-04-28 18:48 | 34.88820 | 33.64173 | 215 ft | 140 kts | 225° |
| 2026-04-28 18:48 | 34.88132 | 33.63326 | 48 ft | 139 kts | 225° |
| 2026-04-28 18:48 | 34.87519 | 33.62569 | 13 ft | 80 kts | 224° |
| 2026-04-28 18:48 | 34.87363 | 33.62371 | 12 ft | 14 kts | 247° |
| 2026-04-28 18:49 | 34.87392 | 33.62276 | 12 ft | 11 kts | 312° |
| 2026-04-28 18:49 | 34.87423 | 33.62236 | 12 ft | 6 kts | 315° |
| 2026-04-28 18:49 | 34.87472 | 33.62172 | 12 ft | 8 kts | 321° |
| 2026-04-28 18:49 | 34.87513 | 33.62116 | 12 ft | 9 kts | 286° |
| 2026-04-28 18:50 | 34.87492 | 33.62041 | 12 ft | 10 kts | 227° |
| 2026-04-28 18:50 | 34.87439 | 33.61975 | 12 ft | 11 kts | 225° |
| 2026-04-28 18:50 | 34.87381 | 33.61905 | 12 ft | 12 kts | 225° |
| 2026-04-28 18:50 | 34.87320 | 33.61830 | 12 ft | 12 kts | 225° |
| 2026-04-28 18:51 | 34.87259 | 33.61756 | 14 ft | 12 kts | 225° |
| 2026-04-28 18:51 | 34.87201 | 33.61685 | 15 ft | 11 kts | 225° |
| 2026-04-28 18:51 | 34.87146 | 33.61618 | 16 ft | 10 kts | 225° |
| 2026-04-28 18:51 | 34.87093 | 33.61555 | 18 ft | 10 kts | 226° |
| 2026-04-28 18:52 | 34.87043 | 33.61493 | 19 ft | 9 kts | 225° |
| 2026-04-28 18:52 | 34.86996 | 33.61435 | 21 ft | 9 kts | 225° |
| 2026-04-28 18:52 | 34.86955 | 33.61385 | 23 ft | 7 kts | 225° |
| 2026-04-28 18:52 | 34.86937 | 33.61327 | 24 ft | 7 kts | 283° |
| 2026-04-28 18:53 | 34.86959 | 33.61285 | 26 ft | 4 kts | 290° |
| 2026-04-28 18:53 | 34.86958 | 33.61256 | 27 ft | 2 kts | 259° |
| 2026-04-28 18:53 | 34.86956 | 33.61243 | 27 ft | 0 kts | 258° |
| 2026-04-28 18:53 | 34.86954 | 33.61231 | 28 ft | 3 kts | 258° |
| 2026-04-28 18:54 | 34.86948 | 33.61203 | 29 ft | 3 kts | 257° |
| 2026-04-28 18:54 | 34.86944 | 33.61184 | 29 ft | 1 kts | 256° |
| 2026-04-28 18:54 | 34.86943 | 33.61179 | 30 ft | 0 kts | 256° |
| 2026-04-28 18:54 | 34.86941 | 33.61168 | 30 ft | 0 kts | 257° |